Time;durP1;ratioP1;P1;durP2;ratioP2;P2;SDS_P1;SDS_P2;PMS_P1;PMS_P2;Temp;Humidity;BMP_temperature;BMP_pressure;BME280_temperature;BME280_humidity;BME280_pressure;Samples;Min_cycle;Max_cycle;Signal;HPM_P1;HPM_P2
2021/06/08 00:00:25;;;;;;;6.97;5.13;;;;;;;;;;4972504;28;20213;-75
2021/06/08 00:02:52;;;;;;;5.60;5.00;;;;;;;;;;4969422;28;20293;-75
2021/06/08 00:05:19;;;;;;;7.03;5.20;;;;;;;;;;4961082;28;20313;-75
2021/06/08 00:07:46;;;;;;;5.50;5.00;;;;;;;;;;4945335;28;20301;-75
2021/06/08 00:10:13;;;;;;;5.17;4.67;;;;;;;;;;4954620;28;20290;-75
2021/06/08 00:12:40;;;;;;;5.97;4.63;;;;;;;;;;4970536;28;20209;-75
2021/06/08 00:15:08;;;;;;;5.90;4.90;;;;;;;;;;4972311;28;20771;-75
2021/06/08 00:17:37;;;;;;;8.07;5.27;;;;;;;;;;4953614;28;20550;-75
2021/06/08 00:20:04;;;;;;;7.40;5.40;;;;;;;;;;4966681;28;20289;-74
2021/06/08 00:22:31;;;;;;;5.97;4.70;;;;;;;;;;4956697;28;20293;-74
2021/06/08 00:24:58;;;;;;;5.90;5.40;;;;;;;;;;4960857;28;20307;-75
2021/06/08 00:27:25;;;;;;;5.63;5.07;;;;;;;;;;4955819;28;20297;-75
2021/06/08 00:29:51;;;;;;;6.07;5.47;;;;;;;;;;4939144;29;20245;-75
2021/06/08 00:32:18;;;;;;;5.33;4.80;;;;;;;;;;4956459;29;20238;-75
2021/06/08 00:34:46;;;;;;;7.23;5.33;;;;;;;;;;4956193;29;20294;-75
2021/06/08 00:37:13;;;;;;;5.70;5.00;;;;;;;;;;4956215;29;20302;-74
2021/06/08 00:39:40;;;;;;;6.60;5.53;;;;;;;;;;4956353;29;20242;-74
2021/06/08 00:42:07;;;;;;;5.60;5.07;;;;;;;;;;4962810;28;20238;-74
2021/06/08 00:44:33;;;;;;;6.53;5.47;;;;;;;;;;4975664;28;20301;-74
2021/06/08 00:47:00;;;;;;;6.20;5.57;;;;;;;;;;4975130;28;20333;-75
2021/06/08 00:49:27;;;;;;;7.53;5.60;;;;;;;;;;4960778;28;20266;-75
2021/06/08 00:51:55;;;;;;;6.63;5.63;;;;;;;;;;4975009;28;20305;-75
2021/06/08 00:54:22;;;;;;;6.60;5.13;;;;;;;;;;4974948;28;20253;-74
2021/06/08 00:56:49;;;;;;;5.57;4.90;;;;;;;;;;4974069;28;20293;-75
2021/06/08 00:59:16;;;;;;;6.67;5.17;;;;;;;;;;4974538;28;20207;-74
2021/06/08 01:01:43;;;;;;;6.33;5.00;;;;;;;;;;4975232;28;20289;-74
2021/06/08 01:04:11;;;;;;;5.83;4.90;;;;;;;;;;4974820;28;20245;-74
2021/06/08 01:06:39;;;;;;;5.97;4.73;;;;;;;;;;4974626;28;20313;-75
2021/06/08 01:09:08;;;;;;;5.77;5.17;;;;;;;;;;4965601;28;20211;-75
2021/06/08 01:11:35;;;;;;;6.47;5.50;;;;;;;;;;4955969;29;20207;-74
2021/06/08 01:14:02;;;;;;;7.23;5.87;;;;;;;;;;4955511;29;20226;-75
2021/06/08 01:16:30;;;;;;;6.70;5.80;;;;;;;;;;4955615;29;20231;-75
2021/06/08 01:18:56;;;;;;;7.33;5.90;;;;;;;;;;4955624;29;20293;-74
2021/06/08 01:21:27;;;;;;;6.13;5.53;;;;;;;;;;4955629;29;20238;-75
2021/06/08 01:23:53;;;;;;;7.57;6.23;;;;;;;;;;4955205;29;20231;-75
2021/06/08 01:26:23;;;;;;;6.47;5.50;;;;;;;;;;4955377;29;20325;-75
2021/06/08 01:28:50;;;;;;;6.07;5.47;;;;;;;;;;4955528;29;20266;-74
2021/06/08 01:31:19;;;;;;;6.93;5.40;;;;;;;;;;4957184;28;20650;-75
2021/06/08 01:33:46;;;;;;;5.80;5.20;;;;;;;;;;4973990;28;20292;-75
2021/06/08 01:36:14;;;;;;;6.77;5.53;;;;;;;;;;4974191;28;20293;-75
2021/06/08 01:38:43;;;;;;;7.07;5.60;;;;;;;;;;4968212;28;20229;-74
2021/06/08 01:41:12;;;;;;;7.63;5.87;;;;;;;;;;4955333;29;20210;-74
2021/06/08 01:43:40;;;;;;;5.80;5.20;;;;;;;;;;4955320;29;20241;-74
2021/06/08 01:46:07;;;;;;;8.07;5.67;;;;;;;;;;4954932;29;20815;-75
2021/06/08 01:48:34;;;;;;;7.80;5.83;;;;;;;;;;4962773;28;20245;-74
2021/06/08 01:51:08;;;;;;;7.43;5.60;;;;;;;;;;4974398;28;20302;-74
2021/06/08 01:53:37;;;;;;;6.83;5.33;;;;;;;;;;4964198;28;20205;-75
2021/06/08 01:56:09;;;;;;;6.43;5.23;;;;;;;;;;4961700;28;20683;-74
2021/06/08 01:58:40;;;;;;;6.30;5.57;;;;;;;;;;4973770;28;20245;-74
2021/06/08 02:01:10;;;;;;;7.83;5.60;;;;;;;;;;4974303;28;20297;-74
2021/06/08 02:03:39;;;;;;;7.23;5.87;;;;;;;;;;4973712;28;20245;-75
2021/06/08 02:06:10;;;;;;;6.20;5.27;;;;;;;;;;4974341;28;20279;-74
2021/06/08 02:08:39;;;;;;;6.40;5.43;;;;;;;;;;4956286;28;20289;-75
2021/06/08 02:11:10;;;;;;;6.30;5.10;;;;;;;;;;4954966;29;20237;-75
2021/06/08 02:13:41;;;;;;;6.87;4.80;;;;;;;;;;4968151;28;20236;-75
2021/06/08 02:16:16;;;;;;;5.20;4.70;;;;;;;;;;4973703;28;20631;-75
2021/06/08 02:18:44;;;;;;;6.13;5.50;;;;;;;;;;4973605;28;20255;-74
2021/06/08 02:21:12;;;;;;;6.33;5.03;;;;;;;;;;4973924;28;20287;-74
2021/06/08 02:23:39;;;;;;;6.73;5.00;;;;;;;;;;4973249;28;20299;-74
2021/06/08 02:26:06;;;;;;;5.20;4.70;;;;;;;;;;4973677;28;20261;-74
2021/06/08 02:28:37;;;;;;;6.27;5.60;;;;;;;;;;4959223;28;20690;-75
2021/06/08 02:31:06;;;;;;;7.77;5.57;;;;;;;;;;4966715;28;20293;-75
2021/06/08 02:33:33;;;;;;;5.90;5.30;;;;;;;;;;4973219;28;20573;-75
2021/06/08 02:36:01;;;;;;;7.37;5.40;;;;;;;;;;4973095;28;20300;-74
2021/06/08 02:38:29;;;;;;;5.87;5.37;;;;;;;;;;4973520;28;20211;-74
2021/06/08 02:40:55;;;;;;;6.57;5.13;;;;;;;;;;4973524;28;20206;-73
2021/06/08 02:43:24;;;;;;;5.73;5.17;;;;;;;;;;4973440;28;20633;-74
2021/06/08 02:45:53;;;;;;;6.20;5.53;;;;;;;;;;4973045;28;20233;-72
2021/06/08 02:48:36;;;;;;;9.17;5.90;;;;;;;;;;4912300;29;20251;-75
2021/06/08 02:51:03;;;;;;;6.40;5.17;;;;;;;;;;4912375;29;20323;-75
2021/06/08 02:53:30;;;;;;;6.90;6.10;;;;;;;;;;4912868;29;20250;-75
2021/06/08 02:55:58;;;;;;;6.37;5.63;;;;;;;;;;4913183;29;20647;-75
2021/06/08 02:58:26;;;;;;;6.97;5.40;;;;;;;;;;4913434;29;20281;-75
2021/06/08 03:00:54;;;;;;;7.37;6.00;;;;;;;;;;4912544;29;20236;-74
2021/06/08 03:03:22;;;;;;;9.73;6.40;;;;;;;;;;4913072;29;20294;-75
2021/06/08 03:05:51;;;;;;;8.57;6.60;;;;;;;;;;4911329;29;20314;-75
2021/06/08 03:08:19;;;;;;;8.50;6.50;;;;;;;;;;4912669;29;20229;-74
2021/06/08 03:10:49;;;;;;;6.43;5.60;;;;;;;;;;4912881;29;20230;-75
2021/06/08 03:13:17;;;;;;;8.47;6.20;;;;;;;;;;4913163;29;20683;-74
2021/06/08 03:15:46;;;;;;;7.17;6.20;;;;;;;;;;4912421;29;20207;-75
2021/06/08 03:18:16;;;;;;;7.20;6.20;;;;;;;;;;4912852;29;20242;-75
2021/06/08 03:20:46;;;;;;;6.00;5.40;;;;;;;;;;4912600;29;20267;-75
2021/06/08 03:23:15;;;;;;;6.50;5.47;;;;;;;;;;4912953;29;20250;-74
2021/06/08 03:25:42;;;;;;;5.97;5.37;;;;;;;;;;4939454;28;20315;-74
2021/06/08 03:28:10;;;;;;;5.83;4.97;;;;;;;;;;4972719;28;20299;-74
2021/06/08 03:30:37;;;;;;;5.63;4.60;;;;;;;;;;4960478;28;20233;-74
2021/06/08 03:33:04;;;;;;;5.73;4.53;;;;;;;;;;4961922;28;20392;-74
2021/06/08 03:35:33;;;;;;;6.80;4.60;;;;;;;;;;4972510;28;20235;-74
2021/06/08 03:38:00;;;;;;;4.67;4.10;;;;;;;;;;4966942;28;20288;-74
2021/06/08 03:40:27;;;;;;;7.93;4.37;;;;;;;;;;4972427;28;20231;-75
2021/06/08 03:42:54;;;;;;;6.10;4.20;;;;;;;;;;4972515;28;20309;-75
2021/06/08 03:45:22;;;;;;;5.27;4.20;;;;;;;;;;4955605;28;20245;-74
2021/06/08 03:47:49;;;;;;;5.03;4.23;;;;;;;;;;4968711;28;20207;-75
2021/06/08 03:50:16;;;;;;;6.30;4.40;;;;;;;;;;4971648;28;20322;-74
2021/06/08 03:52:50;;;;;;;5.07;4.33;;;;;;;;;;4972449;28;20291;-74
2021/06/08 03:55:18;;;;;;;5.53;4.60;;;;;;;;;;4972200;28;20212;-74
2021/06/08 03:57:47;;;;;;;8.93;5.30;;;;;;;;;;4972636;28;20247;-74
2021/06/08 04:00:15;;;;;;;6.73;5.57;;;;;;;;;;4972131;28;20295;-74
2021/06/08 04:02:42;;;;;;;7.60;4.73;;;;;;;;;;4973810;28;20290;-75
2021/06/08 04:05:10;;;;;;;6.67;4.57;;;;;;;;;;4974753;28;20646;-75
2021/06/08 04:07:39;;;;;;;7.97;5.03;;;;;;;;;;4976045;28;20229;-75
2021/06/08 04:10:10;;;;;;;6.60;5.10;;;;;;;;;;4969512;28;20255;-74
2021/06/08 04:12:36;;;;;;;7.03;5.17;;;;;;;;;;4976035;28;20238;-74
2021/06/08 04:15:04;;;;;;;7.60;5.17;;;;;;;;;;4975842;28;20241;-74
2021/06/08 04:17:32;;;;;;;6.77;5.20;;;;;;;;;;4973185;28;20199;-74
2021/06/08 04:19:59;;;;;;;6.63;5.10;;;;;;;;;;4973410;28;20208;-74
2021/06/08 04:22:27;;;;;;;5.77;5.17;;;;;;;;;;4975773;28;20238;-74
2021/06/08 04:24:54;;;;;;;5.80;5.03;;;;;;;;;;4975924;28;20246;-74
2021/06/08 04:27:23;;;;;;;7.60;4.83;;;;;;;;;;4974444;28;20772;-74
2021/06/08 04:29:51;;;;;;;5.67;4.90;;;;;;;;;;4975476;28;20294;-74
2021/06/08 04:32:18;;;;;;;7.30;5.30;;;;;;;;;;4975276;28;20237;-74
2021/06/08 04:34:48;;;;;;;7.00;5.23;;;;;;;;;;4957497;28;20224;-74
2021/06/08 04:37:15;;;;;;;6.87;5.17;;;;;;;;;;4960676;28;20203;-74
2021/06/08 04:39:42;;;;;;;6.10;5.23;;;;;;;;;;4974561;28;20288;-74
2021/06/08 04:42:10;;;;;;;7.27;5.50;;;;;;;;;;4975460;28;20325;-74
2021/06/08 04:44:38;;;;;;;6.20;5.20;;;;;;;;;;4975359;28;20220;-74
2021/06/08 04:47:06;;;;;;;5.77;5.00;;;;;;;;;;4975365;28;20637;-74
2021/06/08 04:49:33;;;;;;;5.70;4.90;;;;;;;;;;4974891;28;20275;-74
2021/06/08 04:51:59;;;;;;;5.47;4.97;;;;;;;;;;4957790;28;20309;-74
2021/06/08 04:54:26;;;;;;;6.17;4.83;;;;;;;;;;4955677;29;20306;-75
2021/06/08 04:56:53;;;;;;;6.67;4.70;;;;;;;;;;4965311;28;20206;-75
2021/06/08 04:59:23;;;;;;;5.07;4.57;;;;;;;;;;4975131;28;20299;-74
2021/06/08 05:01:51;;;;;;;5.00;4.50;;;;;;;;;;4974401;28;20292;-74
2021/06/08 05:04:20;;;;;;;7.63;4.53;;;;;;;;;;4975114;28;20686;-75
2021/06/08 05:06:49;;;;;;;6.10;4.70;;;;;;;;;;4957945;28;20416;-75
2021/06/08 05:09:16;;;;;;;5.17;4.67;;;;;;;;;;4974946;28;20284;-75
2021/06/08 05:11:45;;;;;;;5.20;4.70;;;;;;;;;;4972674;28;20260;-75
2021/06/08 05:14:15;;;;;;;5.47;4.60;;;;;;;;;;4972162;28;20289;-75
2021/06/08 05:16:42;;;;;;;5.77;5.10;;;;;;;;;;4974530;28;20652;-75
2021/06/08 05:19:11;;;;;;;6.63;5.30;;;;;;;;;;4959432;28;20234;-76
2021/06/08 05:21:38;;;;;;;7.27;5.83;;;;;;;;;;4957727;28;20664;-75
2021/06/08 05:24:05;;;;;;;6.63;5.40;;;;;;;;;;4974479;28;20276;-75
2021/06/08 05:26:32;;;;;;;7.10;5.80;;;;;;;;;;4974087;28;20659;-75
2021/06/08 05:28:59;;;;;;;6.07;5.13;;;;;;;;;;4975027;28;20237;-75
2021/06/08 05:31:26;;;;;;;5.63;4.60;;;;;;;;;;4972748;28;20195;-75
2021/06/08 05:33:57;;;;;;;4.70;4.20;;;;;;;;;;4973541;28;20244;-75
2021/06/08 05:36:29;;;;;;;4.67;3.87;;;;;;;;;;4974314;28;20234;-75
2021/06/08 05:38:55;;;;;;;4.77;3.87;;;;;;;;;;4968131;28;20241;-74
2021/06/08 05:41:22;;;;;;;4.20;3.80;;;;;;;;;;4972730;28;20245;-75
2021/06/08 05:43:49;;;;;;;4.23;3.83;;;;;;;;;;4973842;28;20293;-74
2021/06/08 05:46:15;;;;;;;4.63;3.70;;;;;;;;;;4973705;28;20292;-74
2021/06/08 05:48:42;;;;;;;4.30;3.90;;;;;;;;;;4972462;28;20245;-74
2021/06/08 05:51:11;;;;;;;3.83;3.40;;;;;;;;;;4968510;28;20314;-73
2021/06/08 05:53:39;;;;;;;4.13;3.70;;;;;;;;;;4972391;28;20202;-75
2021/06/08 05:56:07;;;;;;;4.30;3.90;;;;;;;;;;4971246;28;20286;-74
2021/06/08 05:58:35;;;;;;;4.33;3.50;;;;;;;;;;4972914;28;20207;-74
2021/06/08 06:01:02;;;;;;;3.65;3.33;;;;;;;;;;4967005;28;20269;-75
2021/06/08 06:03:29;;;;;;;4.03;3.72;;;;;;;;;;4962442;28;20294;-75
2021/06/08 06:05:59;;;;;;;3.50;3.20;;;;;;;;;;4964805;28;20325;-75
2021/06/08 06:08:26;;;;;;;3.63;3.25;;;;;;;;;;4963725;28;20282;-75
2021/06/08 06:10:55;;;;;;;3.65;3.35;;;;;;;;;;4962463;28;20293;-75
2021/06/08 06:13:26;;;;;;;4.03;3.60;;;;;;;;;;4962132;28;20290;-75
2021/06/08 06:15:55;;;;;;;4.63;3.13;;;;;;;;;;4968845;28;20277;-74
2021/06/08 06:18:22;;;;;;;3.50;3.10;;;;;;;;;;4963115;28;20293;-75
2021/06/08 06:20:51;;;;;;;3.35;2.88;;;;;;;;;;4964222;28;20286;-74
2021/06/08 06:23:18;;;;;;;3.78;3.20;;;;;;;;;;4961947;28;20210;-75
2021/06/08 06:25:45;;;;;;;3.40;3.10;;;;;;;;;;4962839;28;20241;-76
2021/06/08 06:28:14;;;;;;;3.40;3.10;;;;;;;;;;4962062;28;20213;-73
2021/06/08 06:30:41;;;;;;;3.92;3.03;;;;;;;;;;4957294;28;20238;-76
2021/06/08 06:33:08;;;;;;;4.35;2.70;;;;;;;;;;4954706;28;20294;-76
2021/06/08 06:35:35;;;;;;;3.63;2.60;;;;;;;;;;4971775;28;20301;-75
2021/06/08 06:38:03;;;;;;;6.05;2.97;;;;;;;;;;4967682;28;20796;-75
2021/06/08 06:40:31;;;;;;;2.83;2.60;;;;;;;;;;4955378;28;20294;-73
2021/06/08 06:43:02;;;;;;;3.70;2.85;;;;;;;;;;4968005;28;20238;-75
2021/06/08 06:45:30;;;;;;;4.70;2.90;;;;;;;;;;4961294;28;20206;-75
2021/06/08 06:48:02;;;;;;;3.28;2.88;;;;;;;;;;4969905;28;20225;-75
2021/06/08 06:50:29;;;;;;;3.47;2.40;;;;;;;;;;4965281;28;20262;-75
2021/06/08 06:52:56;;;;;;;4.03;2.70;;;;;;;;;;4960044;28;20265;-75
2021/06/08 06:55:23;;;;;;;4.28;2.70;;;;;;;;;;4967833;28;20234;-76
2021/06/08 06:57:51;;;;;;;5.18;2.72;;;;;;;;;;4954580;28;20230;-74
2021/06/08 07:00:18;;;;;;;2.97;2.63;;;;;;;;;;4968462;28;20198;-75
2021/06/08 07:02:47;;;;;;;4.90;2.42;;;;;;;;;;4967435;28;20203;-74
2021/06/08 07:05:15;;;;;;;3.97;2.60;;;;;;;;;;4971842;28;20230;-76
2021/06/08 07:07:43;;;;;;;4.55;2.90;;;;;;;;;;4972818;28;20229;-76
2021/06/08 07:10:11;;;;;;;9.13;2.80;;;;;;;;;;4972550;28;20293;-75
2021/06/08 07:12:40;;;;;;;9.10;2.92;;;;;;;;;;4958284;28;20230;-76
2021/06/08 07:15:09;;;;;;;5.03;2.80;;;;;;;;;;4963057;28;20238;-74
2021/06/08 07:17:36;;;;;;;3.88;2.75;;;;;;;;;;4957813;28;20207;-75
2021/06/08 07:20:06;;;;;;;4.30;2.90;;;;;;;;;;4968209;28;20301;-75
2021/06/08 07:22:33;;;;;;;4.82;3.67;;;;;;;;;;4967862;28;20205;-75
2021/06/08 07:25:00;;;;;;;3.97;2.70;;;;;;;;;;4970218;28;20241;-75
2021/06/08 07:27:27;;;;;;;9.40;3.05;;;;;;;;;;4967960;28;20764;-75
2021/06/08 07:29:54;;;;;;;4.45;2.50;;;;;;;;;;4962974;28;20234;-75
2021/06/08 07:32:22;;;;;;;4.03;2.80;;;;;;;;;;4963094;28;20238;-76
2021/06/08 07:34:50;;;;;;;3.95;3.00;;;;;;;;;;4964212;28;20290;-75
2021/06/08 07:37:21;;;;;;;4.75;2.70;;;;;;;;;;4964879;28;20223;-76
2021/06/08 07:39:50;;;;;;;3.53;2.80;;;;;;;;;;4974304;28;20595;-74
2021/06/08 07:42:18;;;;;;;5.50;3.35;;;;;;;;;;4977672;28;20205;-76
2021/06/08 07:44:47;;;;;;;5.18;3.47;;;;;;;;;;4973586;28;20225;-76
2021/06/08 07:47:15;;;;;;;3.80;2.67;;;;;;;;;;4976679;28;20269;-75
2021/06/08 07:49:43;;;;;;;4.07;2.88;;;;;;;;;;4969971;28;20321;-75
2021/06/08 07:52:11;;;;;;;2.90;2.60;;;;;;;;;;4976683;28;20385;-76
2021/06/08 07:54:39;;;;;;;3.10;2.60;;;;;;;;;;4967053;28;20282;-74
2021/06/08 07:57:06;;;;;;;3.63;2.65;;;;;;;;;;4966802;28;20302;-74
2021/06/08 07:59:33;;;;;;;3.38;2.80;;;;;;;;;;4966919;28;20294;-75
2021/06/08 08:02:00;;;;;;;4.55;3.03;;;;;;;;;;4965962;28;20234;-75
2021/06/08 08:04:26;;;;;;;4.18;2.55;;;;;;;;;;4967271;28;20207;-75
2021/06/08 08:06:54;;;;;;;4.95;3.38;;;;;;;;;;4972967;28;20257;-74
2021/06/08 08:09:21;;;;;;;5.38;3.17;;;;;;;;;;4977843;28;20294;-74
2021/06/08 08:11:53;;;;;;;3.45;2.90;;;;;;;;;;4942350;29;20234;-75
2021/06/08 08:14:22;;;;;;;3.67;3.10;;;;;;;;;;4958678;28;20203;-75
2021/06/08 08:16:50;;;;;;;4.47;2.95;;;;;;;;;;4966707;28;20198;-75
2021/06/08 08:19:17;;;;;;;3.70;3.20;;;;;;;;;;4975157;28;20273;-75
2021/06/08 08:21:44;;;;;;;3.30;2.60;;;;;;;;;;4967213;28;20552;-74
2021/06/08 08:24:11;;;;;;;3.55;2.90;;;;;;;;;;4978047;28;20206;-74
2021/06/08 08:26:38;;;;;;;3.70;2.75;;;;;;;;;;4960852;28;20317;-75
2021/06/08 08:29:06;;;;;;;4.90;2.80;;;;;;;;;;4967091;28;20204;-75
2021/06/08 08:31:34;;;;;;;3.05;2.67;;;;;;;;;;4977326;28;20293;-75
2021/06/08 08:34:00;;;;;;;4.70;3.30;;;;;;;;;;4972955;28;20286;-75
2021/06/08 08:36:28;;;;;;;3.15;2.83;;;;;;;;;;4976843;28;20226;-75
2021/06/08 08:38:55;;;;;;;3.85;2.63;;;;;;;;;;4978046;28;20263;-75
2021/06/08 08:41:23;;;;;;;3.75;3.20;;;;;;;;;;4970431;28;20298;-75
2021/06/08 08:43:51;;;;;;;3.45;3.10;;;;;;;;;;4973397;28;20301;-74
2021/06/08 08:46:20;;;;;;;3.13;2.90;;;;;;;;;;4969286;28;20250;-75
2021/06/08 08:48:53;;;;;;;5.15;3.40;;;;;;;;;;4966794;28;20762;-74
2021/06/08 08:51:21;;;;;;;3.88;3.30;;;;;;;;;;4968257;28;20242;-74
2021/06/08 08:53:49;;;;;;;5.15;3.10;;;;;;;;;;4964278;28;20231;-74
2021/06/08 08:56:16;;;;;;;3.05;2.72;;;;;;;;;;4972659;28;20209;-74
2021/06/08 08:58:43;;;;;;;3.17;2.55;;;;;;;;;;4973038;28;20233;-74
2021/06/08 09:01:10;;;;;;;2.75;2.50;;;;;;;;;;4963360;28;20297;-74
2021/06/08 09:03:39;;;;;;;3.20;2.80;;;;;;;;;;4967754;28;20631;-74
2021/06/08 09:06:06;;;;;;;2.90;2.70;;;;;;;;;;4966169;28;20260;-74
2021/06/08 09:08:33;;;;;;;2.92;2.72;;;;;;;;;;4969013;28;20676;-74
2021/06/08 09:11:00;;;;;;;3.00;2.70;;;;;;;;;;4960850;28;20206;-74
2021/06/08 09:13:27;;;;;;;4.85;2.65;;;;;;;;;;4971809;28;20211;-74
2021/06/08 09:15:55;;;;;;;3.55;3.10;;;;;;;;;;4970242;28;20739;-74
2021/06/08 09:18:24;;;;;;;4.05;3.10;;;;;;;;;;4967615;28;20294;-74
2021/06/08 09:20:53;;;;;;;2.90;2.70;;;;;;;;;;4967462;28;20222;-74
2021/06/08 09:23:22;;;;;;;4.10;2.30;;;;;;;;;;4965164;28;20308;-74
2021/06/08 09:25:50;;;;;;;3.17;2.83;;;;;;;;;;4969414;28;20207;-74
2021/06/08 09:28:18;;;;;;;3.05;2.75;;;;;;;;;;4971182;28;20277;-74
2021/06/08 09:30:45;;;;;;;2.75;2.33;;;;;;;;;;4966747;28;20195;-74
2021/06/08 09:33:19;;;;;;;3.40;2.38;;;;;;;;;;4961821;28;20290;-75
2021/06/08 09:35:49;;;;;;;2.47;2.28;;;;;;;;;;4948520;28;20346;-74
2021/06/08 09:38:18;;;;;;;3.00;2.70;;;;;;;;;;4966110;28;20676;-74
2021/06/08 09:40:44;;;;;;;3.38;2.30;;;;;;;;;;4965630;28;20286;-74
2021/06/08 09:43:12;;;;;;;2.03;1.85;;;;;;;;;;4962739;28;20648;-74
2021/06/08 09:45:43;;;;;;;2.50;2.30;;;;;;;;;;4964420;28;20292;-74
2021/06/08 09:48:10;;;;;;;2.63;2.28;;;;;;;;;;4963304;28;20309;-75
2021/06/08 09:50:38;;;;;;;2.13;1.88;;;;;;;;;;4964202;28;20297;-74
2021/06/08 09:53:25;;;;;;;2.38;1.92;;;;;;;;;;4963925;28;20191;-75
2021/06/08 09:55:53;;;;;;;1.80;1.70;;;;;;;;;;4961987;28;20695;-74
2021/06/08 09:58:20;;;;;;;2.28;1.98;;;;;;;;;;4962934;28;20206;-73
2021/06/08 10:01:05;;;;;;;2.10;1.90;;;;;;;;;;4962857;28;20285;-74
2021/06/08 10:03:36;;;;;;;5.22;1.90;;;;;;;;;;4962688;28;20290;-74
2021/06/08 10:06:06;;;;;;;2.58;2.33;;;;;;;;;;4964842;28;20227;-74
2021/06/08 10:08:34;;;;;;;2.13;1.60;;;;;;;;;;4964054;28;20230;-74
2021/06/08 10:11:01;;;;;;;2.70;2.50;;;;;;;;;;4964222;28;20250;-74
2021/06/08 10:13:28;;;;;;;2.47;2.25;;;;;;;;;;4963456;28;20206;-74
2021/06/08 10:15:57;;;;;;;3.25;2.10;;;;;;;;;;4962141;28;20194;-74
2021/06/08 10:18:24;;;;;;;3.45;2.00;;;;;;;;;;4964439;28;20203;-74
2021/06/08 10:20:52;;;;;;;2.42;2.22;;;;;;;;;;4968111;28;20314;-74
2021/06/08 10:23:21;;;;;;;2.80;2.53;;;;;;;;;;4972888;28;20241;-74
2021/06/08 10:25:49;;;;;;;2.85;2.22;;;;;;;;;;4964281;28;20235;-74
2021/06/08 10:28:16;;;;;;;3.88;2.10;;;;;;;;;;4954142;29;20290;-74
2021/06/08 10:30:44;;;;;;;2.60;2.17;;;;;;;;;;4962021;28;20230;-74
2021/06/08 10:33:11;;;;;;;2.92;1.92;;;;;;;;;;4960313;28;20681;-75
2021/06/08 10:35:38;;;;;;;2.08;1.98;;;;;;;;;;4965370;28;20329;-74
2021/06/08 10:38:05;;;;;;;3.70;2.10;;;;;;;;;;4961103;28;20282;-74
2021/06/08 10:40:32;;;;;;;3.40;1.80;;;;;;;;;;4972784;28;20683;-74
2021/06/08 10:43:00;;;;;;;2.90;1.60;;;;;;;;;;4971723;28;20366;-74
2021/06/08 10:45:33;;;;;;;3.47;1.63;;;;;;;;;;4972979;28;20357;-75
2021/06/08 10:48:05;;;;;;;2.88;1.70;;;;;;;;;;4972653;28;20241;-75
2021/06/08 10:50:33;;;;;;;2.72;1.80;;;;;;;;;;4972852;28;20665;-75
2021/06/08 10:53:00;;;;;;;1.73;1.63;;;;;;;;;;4973308;28;20207;-74
2021/06/08 10:55:29;;;;;;;2.70;2.08;;;;;;;;;;4971531;28;20264;-74
2021/06/08 10:57:56;;;;;;;2.03;1.60;;;;;;;;;;4971011;28;20190;-74
2021/06/08 11:00:35;;;;;;;2.33;1.80;;;;;;;;;;4968561;28;20199;-75
2021/06/08 11:03:02;;;;;;;2.05;1.85;;;;;;;;;;4953817;28;20693;-75
2021/06/08 11:05:46;;;;;;;2.55;1.63;;;;;;;;;;4953471;28;20207;-75
2021/06/08 11:08:13;;;;;;;1.90;1.80;;;;;;;;;;4953596;28;20635;-75
2021/06/08 11:10:51;;;;;;;2.67;1.88;;;;;;;;;;4953984;28;20227;-75
2021/06/08 11:13:37;;;;;;;2.58;1.80;;;;;;;;;;4970088;28;20672;-76
2021/06/08 11:16:28;;;;;;;1.58;1.48;;;;;;;;;;4968537;28;20335;-75
2021/06/08 11:18:56;;;;;;;2.90;1.67;;;;;;;;;;4961978;28;20690;-74
2021/06/08 11:21:23;;;;;;;2.40;1.58;;;;;;;;;;4957455;28;20582;-74
2021/06/08 11:23:53;;;;;;;3.08;1.80;;;;;;;;;;4970891;28;20234;-75
2021/06/08 11:26:20;;;;;;;2.00;1.80;;;;;;;;;;4970951;28;20202;-75
2021/06/08 11:28:48;;;;;;;4.25;2.10;;;;;;;;;;4954196;28;20234;-74
2021/06/08 11:31:16;;;;;;;1.90;1.70;;;;;;;;;;4946760;28;20226;-75
2021/06/08 11:33:44;;;;;;;2.25;1.80;;;;;;;;;;4972380;28;20234;-75
2021/06/08 11:36:30;;;;;;;2.78;1.80;;;;;;;;;;4972930;28;20206;-74
2021/06/08 11:39:21;;;;;;;1.98;1.65;;;;;;;;;;4972968;28;20579;-75
2021/06/08 11:41:54;;;;;;;2.95;1.60;;;;;;;;;;4972576;28;20850;-75
2021/06/08 11:44:21;;;;;;;1.95;1.60;;;;;;;;;;4972380;28;20214;-75
2021/06/08 11:46:58;;;;;;;2.08;1.88;;;;;;;;;;4969959;28;20341;-74
2021/06/08 11:49:25;;;;;;;1.90;1.80;;;;;;;;;;4958861;28;20326;-75
2021/06/08 11:52:18;;;;;;;2.83;1.65;;;;;;;;;;4961136;28;20214;-75
2021/06/08 11:54:48;;;;;;;3.10;1.70;;;;;;;;;;4969519;28;20735;-74
2021/06/08 11:57:17;;;;;;;2.22;1.85;;;;;;;;;;4968659;28;20214;-75
2021/06/08 11:59:59;;;;;;;2.03;1.80;;;;;;;;;;4971848;28;20241;-75
2021/06/08 12:02:30;;;;;;;3.38;1.90;;;;;;;;;;4971370;28;20288;-74
2021/06/08 12:05:08;;;;;;;2.67;1.73;;;;;;;;;;4971050;28;20290;-74
2021/06/08 12:07:41;;;;;;;2.13;1.88;;;;;;;;;;4962568;28;20317;-75
2021/06/08 12:10:10;;;;;;;2.47;1.63;;;;;;;;;;4968694;28;20230;-75
2021/06/08 12:12:43;;;;;;;3.40;1.70;;;;;;;;;;4952625;29;20235;-75
2021/06/08 12:15:11;;;;;;;2.88;1.73;;;;;;;;;;4964187;28;20277;-75
2021/06/08 12:17:38;;;;;;;2.33;1.80;;;;;;;;;;4962997;28;20213;-75
2021/06/08 12:20:05;;;;;;;2.75;1.40;;;;;;;;;;4959927;28;20287;-75
2021/06/08 12:22:33;;;;;;;1.83;1.70;;;;;;;;;;4959402;28;20285;-75
2021/06/08 12:25:01;;;;;;;1.67;1.58;;;;;;;;;;4963938;28;20203;-75
2021/06/08 12:27:36;;;;;;;1.70;1.40;;;;;;;;;;4964293;28;20223;-75
2021/06/08 12:30:04;;;;;;;2.17;1.60;;;;;;;;;;4963563;28;20206;-75
2021/06/08 12:32:31;;;;;;;1.75;1.50;;;;;;;;;;4964468;28;20384;-75
2021/06/08 12:34:58;;;;;;;2.05;1.65;;;;;;;;;;4964162;28;20901;-75
2021/06/08 12:37:25;;;;;;;6.82;1.85;;;;;;;;;;4966924;28;20195;-74
2021/06/08 12:39:52;;;;;;;2.28;1.92;;;;;;;;;;4964880;28;20241;-75
2021/06/08 12:42:19;;;;;;;1.70;1.60;;;;;;;;;;4963661;28;20715;-75
2021/06/08 12:44:49;;;;;;;2.60;1.60;;;;;;;;;;4965439;28;20198;-76
2021/06/08 12:47:16;;;;;;;3.47;1.70;;;;;;;;;;4965513;28;20218;-75
2021/06/08 12:49:43;;;;;;;1.98;1.60;;;;;;;;;;4966236;28;20326;-75
2021/06/08 12:52:14;;;;;;;2.53;1.60;;;;;;;;;;4966356;28;20238;-75
2021/06/08 12:54:41;;;;;;;2.22;1.58;;;;;;;;;;4963991;28;20793;-75
2021/06/08 12:57:09;;;;;;;1.60;1.50;;;;;;;;;;4968496;28;20254;-75
2021/06/08 12:59:38;;;;;;;2.10;1.48;;;;;;;;;;4964318;28;20591;-76
2021/06/08 13:02:09;;;;;;;1.80;1.60;;;;;;;;;;4965362;28;20387;-75
2021/06/08 13:04:38;;;;;;;5.13;1.70;;;;;;;;;;4966298;28;20286;-74
2021/06/08 13:07:05;;;;;;;3.13;1.63;;;;;;;;;;4966870;28;20268;-75
2021/06/08 13:09:32;;;;;;;1.70;1.60;;;;;;;;;;4966081;28;20234;-77
2021/06/08 13:12:03;;;;;;;1.80;1.70;;;;;;;;;;4962148;28;20230;-75
2021/06/08 13:14:29;;;;;;;2.00;1.80;;;;;;;;;;4963288;28;20663;-76
2021/06/08 13:16:56;;;;;;;1.73;1.60;;;;;;;;;;4965340;28;20277;-75
2021/06/08 13:19:26;;;;;;;1.92;1.50;;;;;;;;;;4965729;28;20302;-75
2021/06/08 13:21:53;;;;;;;3.10;1.60;;;;;;;;;;4964292;28;20206;-75
2021/06/08 13:24:21;;;;;;;2.20;1.50;;;;;;;;;;4964167;28;20289;-75
2021/06/08 13:26:48;;;;;;;3.78;1.80;;;;;;;;;;4964483;28;20699;-75
2021/06/08 13:29:20;;;;;;;2.45;1.67;;;;;;;;;;4966138;28;20293;-75
2021/06/08 13:31:48;;;;;;;3.20;1.92;;;;;;;;;;4964122;28;20574;-75
2021/06/08 13:34:24;;;;;;;2.00;1.63;;;;;;;;;;4963407;28;20866;-75
2021/06/08 13:36:58;;;;;;;2.60;1.60;;;;;;;;;;4963610;28;20588;-76
2021/06/08 13:39:24;;;;;;;2.42;1.50;;;;;;;;;;4965902;28;20286;-75
2021/06/08 13:41:52;;;;;;;3.15;1.70;;;;;;;;;;4963913;28;20205;-75
2021/06/08 13:44:19;;;;;;;3.45;1.60;;;;;;;;;;4947453;28;20202;-75
2021/06/08 13:46:56;;;;;;;3.53;1.60;;;;;;;;;;4963877;28;20309;-76
2021/06/08 13:49:38;;;;;;;1.83;1.60;;;;;;;;;;4964424;28;20273;-75
2021/06/08 13:52:06;;;;;;;1.50;1.40;;;;;;;;;;4962753;28;20289;-75
2021/06/08 13:54:35;;;;;;;2.47;1.70;;;;;;;;;;4963098;28;20273;-75
2021/06/08 13:57:04;;;;;;;3.63;1.67;;;;;;;;;;4965351;28;20190;-76
2021/06/08 14:02:40;;;;;;;1.60;1.50;;;;;;;;;;4961706;28;20230;-75
2021/06/08 14:05:07;;;;;;;1.60;1.50;;;;;;;;;;4947997;28;20237;-75
2021/06/08 14:07:35;;;;;;;2.03;1.50;;;;;;;;;;4962773;28;20265;-75
2021/06/08 14:10:07;;;;;;;2.28;1.50;;;;;;;;;;4961516;28;20241;-75
2021/06/08 14:12:34;;;;;;;2.00;1.70;;;;;;;;;;4964372;28;20207;-76
2021/06/08 14:15:05;;;;;;;1.60;1.50;;;;;;;;;;4968141;28;20206;-75
2021/06/08 14:17:32;;;;;;;1.77;1.65;;;;;;;;;;4963297;28;20213;-77
2021/06/08 14:19:59;;;;;;;2.60;1.52;;;;;;;;;;4966892;28;20680;-76
2021/06/08 14:22:26;;;;;;;2.83;1.50;;;;;;;;;;4972836;28;20285;-77
2021/06/08 14:24:54;;;;;;;2.85;1.40;;;;;;;;;;4973453;28;20206;-76
2021/06/08 14:27:21;;;;;;;3.53;1.55;;;;;;;;;;4973348;28;20654;-77
2021/06/08 14:29:48;;;;;;;2.50;1.75;;;;;;;;;;4973468;28;20655;-76
2021/06/08 14:32:15;;;;;;;3.20;1.80;;;31.50;76.10;;;;;;4955009;28;20245;-75
2021/06/08 14:34:41;;;;;;;6.78;2.40;;;30.90;82.60;;;;;;4959617;28;20266;-74
2021/06/08 14:37:09;;;;;;;3.60;2.03;;;30.00;87.00;;;;;;4968970;28;20608;-74
2021/06/08 14:39:35;;;;;;;2.45;1.70;;;29.30;86.80;;;;;;4936717;29;20207;-76
2021/06/08 14:42:04;;;;;;;2.42;1.80;;;31.50;84.30;;;;;;4962609;28;20295;-78
2021/06/08 14:44:30;;;;;;;3.33;1.50;;;32.90;80.40;;;;;;4954222;29;20246;-77
2021/06/08 14:46:57;;;;;;;4.15;1.85;;;31.60;85.10;;;;;;4957285;28;20310;-76
2021/06/08 14:49:23;;;;;;;6.22;2.17;;;30.70;87.30;;;;;;4954996;28;20231;-76
2021/06/08 14:51:50;;;;;;;2.83;1.50;;;30.40;90.40;;;;;;4948782;28;20614;-76